^^
Saratoga-Weather Station Historical Data
Daily Summary for January 12, 2021 Units:  English    Metric   Both
Daily Weekly Monthly Yearly Custom
  High: Low: Average:
Temperature: 30 °F 20.3 °F 24.1 °F
Dew Point: 18.7 °F 16 °F 17.2 °F
Humidity: 85% 58% 75%
Wind Speed: 17mph 0mph 3.4mph
Wind Gust: 26mph - -
Wind- - East
Pressure: 30.4 in 30.3 in -
Precipitation: 0 in    
Historical Graphs
 
 
Tabular Data for January 12, 2021
Time Temperature Dew Point Pressure Wind Wind Speed Wind Gust Humidity Rainfall Rate (Hourly) solar
00:03 21.9 °F 17.1 °F 30.4 in East 0.9 mph 2 mph 81% 0 in 0 W/m2
00:08 21.9 °F 17.1 °F 30.4 in Calm   2 mph 81% 0 in 0 W/m2
00:13 21.9 °F 17.1 °F 30.4 in ESE 2.9 mph 4 mph 81% 0 in 0 W/m2
00:18 22.1 °F 17.4 °F 30.4 in East 0.9 mph 2 mph 82% 0 in 0 W/m2
00:23 22.3 °F 17.4 °F 30.4 in SE 0.9 mph 3 mph 81% 0 in 0 W/m2
00:28 22.3 °F 17.4 °F 30.4 in Calm   1 mph 81% 0 in 0 W/m2
00:33 22.1 °F 17.4 °F 30.4 in Calm   3 mph 82% 0 in 0 W/m2
00:38 22.1 °F 17.4 °F 30.4 in ESE 0.9 mph 1 mph 82% 0 in 0 W/m2
00:43 21.9 °F 17.2 °F 30.4 in Calm   1 mph 82% 0 in 0 W/m2
00:48 21.7 °F 17.1 °F 30.4 in Calm   2 mph 82% 0 in 0 W/m2
00:53 21.7 °F 17.4 °F 30.4 in ESE 0.9 mph 3 mph 83% 0 in 0 W/m2
00:58 21.7 °F 17.4 °F 30.4 in ESE 2 mph 6 mph 83% 0 in 0 W/m2
01:03 21.9 °F 17.6 °F 30.4 in East 2 mph 2 mph 83% 0 in 0 W/m2
01:08 21.9 °F 17.6 °F 30.4 in ESE 2 mph 6 mph 83% 0 in 0 W/m2
01:13 21.9 °F 17.6 °F 30.4 in ENE 0.9 mph 2 mph 83% 0 in 0 W/m2
01:18 21.9 °F 17.6 °F 30.4 in ESE 0.9 mph 3 mph 83% 0 in 0 W/m2
01:23 21.9 °F 17.6 °F 30.4 in ESE 2.9 mph 7 mph 83% 0 in 0 W/m2
01:28 22.1 °F 17.8 °F 30.4 in ENE 2 mph 4 mph 83% 0 in 0 W/m2
01:33 22.3 °F 18 °F 30.4 in East 0.9 mph 7 mph 83% 0 in 0 W/m2
01:38 22.1 °F 17.8 °F 30.4 in ESE 2 mph 2 mph 83% 0 in 0 W/m2
01:43 22.1 °F 18 °F 30.4 in East 2 mph 4 mph 84% 0 in 0 W/m2
01:48 22.1 °F 17.8 °F 30.4 in Calm   4 mph 83% 0 in 0 W/m2
01:53 21.9 °F 17.8 °F 30.4 in East 0.9 mph 3 mph 84% 0 in 0 W/m2
01:58 21.9 °F 17.8 °F 30.4 in ESE 0.9 mph 3 mph 84% 0 in 0 W/m2
02:03 21.9 °F 17.8 °F 30.4 in ESE 2 mph 3 mph 84% 0 in 0 W/m2
02:08 21.9 °F 17.8 °F 30.4 in Calm   2 mph 84% 0 in 0 W/m2
02:13 21.9 °F 17.8 °F 30.4 in ENE 2.9 mph 3 mph 84% 0 in 0 W/m2
02:18 21.9 °F 17.8 °F 30.4 in East 0.9 mph 2 mph 84% 0 in 0 W/m2
02:23 21.9 °F 17.8 °F 30.4 in Calm   1 mph 84% 0 in 0 W/m2
02:28 21.7 °F 17.6 °F 30.4 in SE 0.9 mph 2 mph 84% 0 in 0 W/m2
02:33 21.7 °F 17.6 °F 30.4 in Calm   2 mph 84% 0 in 0 W/m2
02:38 21.6 °F 17.8 °F 30.4 in ESE 2 mph 4 mph 85% 0 in 0 W/m2
02:43 21.7 °F 18 °F 30.4 in ESE 2.9 mph 4 mph 85% 0 in 0 W/m2
02:48 21.7 °F 18 °F 30.4 in Calm   2 mph 85% 0 in 0 W/m2
02:53 21.7 °F 17.6 °F 30.4 in East 4 mph 5 mph 84% 0 in 0 W/m2
02:58 21.7 °F 17.6 °F 30.4 in ESE 0.9 mph 2 mph 84% 0 in 0 W/m2
03:03 21.7 °F 17.6 °F 30.4 in ENE 0.9 mph 3 mph 84% 0 in 0 W/m2
03:08 21.7 °F 17.6 °F 30.4 in East 0.9 mph 2 mph 84% 0 in 0 W/m2
03:13 21.7 °F 17.6 °F 30.4 in Calm   2 mph 84% 0 in 0 W/m2
03:18 21.6 °F 17.4 °F 30.4 in East 0.9 mph 2 mph 84% 0 in 0 W/m2
03:23 21.6 °F 17.4 °F 30.4 in ESE 0.9 mph 3 mph 84% 0 in 0 W/m2
03:28 21.6 °F 17.4 °F 30.4 in NE 0.9 mph 2 mph 84% 0 in 0 W/m2
03:33 21.4 °F 17.2 °F 30.4 in Calm   1 mph 84% 0 in 0 W/m2
03:38 21.4 °F 17.2 °F 30.4 in ESE 2 mph 3 mph 84% 0 in 0 W/m2
03:43 21.4 °F 17.2 °F 30.4 in ESE 2 mph 4 mph 84% 0 in 0 W/m2
03:48 21.6 °F 17.8 °F 30.4 in ENE 4 mph 6 mph 85% 0 in 0 W/m2
03:53 21.6 °F 17.4 °F 30.4 in ESE 4 mph 6 mph 84% 0 in 0 W/m2
03:58 21.6 °F 17.4 °F 30.4 in ENE 2 mph 5 mph 84% 0 in 0 W/m2
04:03 21.6 °F 17.4 °F 30.4 in NE 2 mph 4 mph 84% 0 in 0 W/m2
04:08 21.6 °F 17.4 °F 30.4 in East 4 mph 4 mph 84% 0 in 0 W/m2
04:13 21.6 °F 17.4 °F 30.4 in ESE 0.9 mph 3 mph 84% 0 in 0 W/m2
04:18 21.6 °F 17.4 °F 30.3 in ENE 2 mph 4 mph 84% 0 in 0 W/m2
04:23 21.6 °F 17.4 °F 30.3 in Calm   4 mph 84% 0 in 0 W/m2
04:28 21.6 °F 17.4 °F 30.3 in ESE 2 mph 4 mph 84% 0 in 0 W/m2
04:33 21.6 °F 17.2 °F 30.4 in ENE 2 mph 5 mph 83% 0 in 0 W/m2
04:38 21.4 °F 17.1 °F 30.3 in ESE 0.9 mph 3 mph 83% 0 in 0 W/m2
04:43 21.4 °F 17.1 °F 30.3 in NE 4 mph 7 mph 83% 0 in 0 W/m2
04:48 21.4 °F 17.1 °F 30.4 in Calm   3 mph 83% 0 in 0 W/m2
04:53 21.4 °F 17.1 °F 30.4 in ESE 2 mph 7 mph 83% 0 in 0 W/m2
04:58 21.4 °F 17.1 °F 30.4 in East 2 mph 6 mph 83% 0 in 0 W/m2
05:03 21.4 °F 17.1 °F 30.4 in ESE 2 mph 4 mph 83% 0 in 0 W/m2
05:08 21.4 °F 17.1 °F 30.3 in ESE 4 mph 4 mph 83% 0 in 0 W/m2
05:13 21.4 °F 17.1 °F 30.3 in East 2.9 mph 3 mph 83% 0 in 0 W/m2
05:18 21.4 °F 17.1 °F 30.3 in ESE 2.9 mph 6 mph 83% 0 in 0 W/m2
05:23 21.4 °F 17.1 °F 30.4 in ENE 2.9 mph 3 mph 83% 0 in 0 W/m2
05:28 21.4 °F 17.1 °F 30.4 in ENE 6 mph 7 mph 83% 0 in 0 W/m2
05:33 21.4 °F 17.2 °F 30.4 in ENE 2 mph 6 mph 84% 0 in 0 W/m2
05:38 21.4 °F 17.2 °F 30.4 in ENE 0.9 mph 6 mph 84% 0 in 0 W/m2
05:43 21.2 °F 17.1 °F 30.4 in SE 2 mph 3 mph 84% 0 in 0 W/m2
05:48 21.2 °F 17.1 °F 30.4 in East 2.9 mph 6 mph 84% 0 in 0 W/m2
05:53 21 °F 16.9 °F 30.4 in NE 0.9 mph 4 mph 84% 0 in 0 W/m2
05:58 21 °F 16.9 °F 30.3 in East 6 mph 6 mph 84% 0 in 0 W/m2
06:03 21 °F 16.9 °F 30.3 in ENE 2 mph 6 mph 84% 0 in 0 W/m2
06:08 21 °F 16.9 °F 30.3 in East 2 mph 3 mph 84% 0 in 0 W/m2
06:13 20.8 °F 16.7 °F 30.3 in ESE 2 mph 6 mph 84% 0 in 0 W/m2
06:18 20.8 °F 16.7 °F 30.3 in East 2 mph 3 mph 84% 0 in 0 W/m2
06:23 20.8 °F 16.7 °F 30.3 in ESE 2 mph 3 mph 84% 0 in 0 W/m2
06:28 20.8 °F 16.7 °F 30.3 in Calm   6 mph 84% 0 in 0 W/m2
06:33 20.8 °F 16.7 °F 30.3 in ENE 0.9 mph 4 mph 84% 0 in 0 W/m2
06:38 20.7 °F 16.5 °F 30.3 in ENE 0.9 mph 6 mph 84% 0 in 0 W/m2
06:43 20.7 °F 16.5 °F 30.3 in Calm   4 mph 84% 0 in 0 W/m2
06:48 20.7 °F 16.5 °F 30.3 in SE 2.9 mph 3 mph 84% 0 in 0 W/m2
06:53 20.7 °F 16.5 °F 30.3 in ESE 0.9 mph 4 mph 84% 0 in 0 W/m2
06:59 20.7 °F 16.5 °F 30.3 in East 0.9 mph 4 mph 84% 0 in 0 W/m2
07:04 20.7 °F 16.5 °F 30.3 in ESE 0.9 mph 2 mph 84% 0 in 0 W/m2
07:09 20.7 °F 16.5 °F 30.3 in ENE 0.9 mph 6 mph 84% 0 in 0 W/m2
07:14 20.7 °F 16.5 °F 30.3 in ESE 2 mph 4 mph 84% 0 in 0 W/m2
07:19 20.5 °F 16.3 °F 30.4 in East 0.9 mph 4 mph 84% 0 in 0 W/m2
07:24 20.5 °F 16.3 °F 30.3 in ENE 2 mph 2 mph 84% 0 in 0 W/m2
07:29 20.5 °F 16.3 °F 30.4 in NE 4 mph 4 mph 84% 0 in 0 W/m2
07:34 20.3 °F 16.2 °F 30.4 in ESE 2 mph 2 mph 84% 0 in 0 W/m2
07:39 20.3 °F 16.2 °F 30.4 in ESE 2 mph 4 mph 84% 0 in 0 W/m2
07:44 20.5 °F 16.3 °F 30.4 in SE 0.9 mph 3 mph 84% 0 in 0 W/m2
07:49 20.5 °F 16.2 °F 30.4 in East 0.9 mph 4 mph 83% 0 in 5 W/m2
07:54 20.5 °F 16.2 °F 30.4 in East 2.9 mph 3 mph 83% 0 in 7 W/m2
07:59 20.5 °F 16.2 °F 30.4 in ESE 4 mph 4 mph 83% 0 in 11 W/m2
08:04 20.5 °F 16.2 °F 30.4 in ESE 2 mph 4 mph 83% 0 in 12 W/m2
08:09 20.5 °F 16.2 °F 30.4 in East 0.9 mph 3 mph 83% 0 in 14 W/m2
08:14 20.5 °F 16.2 °F 30.4 in ESE 4 mph 5 mph 83% 0 in 14 W/m2
08:19 20.7 °F 16.3 °F 30.4 in ESE 2 mph 3 mph 83% 0 in 14 W/m2
08:24 20.7 °F 16 °F 30.4 in ENE 2 mph 7 mph 82% 0 in 14 W/m2
08:29 20.7 °F 16 °F 30.4 in ENE 0.9 mph 5 mph 82% 0 in 18 W/m2
08:34 20.8 °F 16.2 °F 30.4 in ENE 2.9 mph 5 mph 82% 0 in 23 W/m2
08:39 20.8 °F 16.2 °F 30.4 in NE 6.9 mph 9 mph 82% 0 in 40 W/m2
08:44 21 °F 16.2 °F 30.4 in Calm   4 mph 81% 0 in 51 W/m2
08:49 21 °F 16.2 °F 30.4 in ENE 2 mph 9 mph 81% 0 in 33 W/m2
08:54 21.4 °F 16.5 °F 30.4 in ESE 2 mph 4 mph 81% 0 in 35 W/m2
08:59 21.6 °F 16.3 °F 30.4 in East 6 mph 7 mph 80% 0 in 35 W/m2
09:04 21.6 °F 16.3 °F 30.4 in ESE 0.9 mph 6 mph 80% 0 in 30 W/m2
09:09 21.7 °F 16.5 °F 30.4 in SE 4.9 mph 9 mph 80% 0 in 35 W/m2
09:14 21.7 °F 16.5 °F 30.4 in Calm   7 mph 80% 0 in 35 W/m2
09:19 21.7 °F 16.5 °F 30.4 in NE 2 mph 8 mph 80% 0 in 63 W/m2
09:24 21.9 °F 16.3 °F 30.4 in ESE 4 mph 7 mph 79% 0 in 134 W/m2
09:29 22.5 °F 16.7 °F 30.4 in ENE 4.9 mph 10 mph 78% 0 in 174 W/m2
09:34 22.8 °F 17.1 °F 30.4 in ENE 2 mph 7 mph 78% 0 in 193 W/m2
09:39 23.2 °F 17.1 °F 30.4 in Calm   8 mph 77% 0 in 192 W/m2
09:44 23.2 °F 16.7 °F 30.4 in NE 2 mph 9 mph 76% 0 in 141 W/m2
09:49 23.4 °F 16.7 °F 30.4 in ENE 2 mph 10 mph 75% 0 in 151 W/m2
09:54 23.5 °F 16.7 °F 30.3 in East 4 mph 10 mph 75% 0 in 165 W/m2
09:59 23.7 °F 16.7 °F 30.3 in East 6.9 mph 11 mph 74% 0 in 204 W/m2
10:04 24.1 °F 17.1 °F 30.3 in NE 6 mph 10 mph 74% 0 in 204 W/m2
10:09 24.3 °F 16.9 °F 30.3 in ESE 4 mph 12 mph 73% 0 in 200 W/m2
10:14 24.4 °F 16.7 °F 30.3 in SE 4.9 mph 9 mph 72% 0 in 167 W/m2
10:19 24.6 °F 16.5 °F 30.3 in ENE 4.9 mph 11 mph 71% 0 in 141 W/m2
10:24 24.6 °F 16.5 °F 30.3 in East 6.9 mph 12 mph 71% 0 in 123 W/m2
10:29 24.8 °F 16.7 °F 30.3 in ESE 6.9 mph 9 mph 71% 0 in 149 W/m2
10:34 25.2 °F 16.7 °F 30.3 in NE 2 mph 10 mph 70% 0 in 144 W/m2
10:39 25.3 °F 16.5 °F 30.3 in NE 6 mph 8 mph 69% 0 in 88 W/m2
10:44 25.7 °F 16.9 °F 30.3 in ESE 8.9 mph 11 mph 69% 0 in 84 W/m2
10:49 25.7 °F 16.5 °F 30.3 in ENE 6.9 mph 10 mph 68% 0 in 72 W/m2
10:54 26.1 °F 16.9 °F 30.3 in ENE 2.9 mph 8 mph 68% 0 in 102 W/m2
10:59 26.2 °F 16.7 °F 30.3 in North 2.9 mph 10 mph 67% 0 in 135 W/m2
11:04 26.6 °F 16.7 °F 30.3 in ESE 4 mph 15 mph 66% 0 in 165 W/m2
11:09 26.8 °F 16.5 °F 30.3 in East 12.1 mph 17 mph 65% 0 in 113 W/m2
11:14 27 °F 16.7 °F 30.3 in ESE 4 mph 9 mph 65% 0 in 77 W/m2
11:19 27 °F 17.1 °F 30.3 in East 17 mph 17 mph 66% 0 in 81 W/m2
11:25 27.1 °F 16.9 °F 30.4 in ESE 8.1 mph 11 mph 65% 0 in 98 W/m2
11:30 27.3 °F 17.1 °F 30.3 in NNW 2.9 mph 12 mph 65% 0 in 97 W/m2
11:35 27.7 °F 17.1 °F 30.4 in ESE 8.1 mph 12 mph 64% 0 in 113 W/m2
11:40 27.7 °F 17.4 °F 30.4 in SE 6.9 mph 9 mph 65% 0 in 100 W/m2
11:45 27.9 °F 17.2 °F 30.3 in East 6.9 mph 9 mph 64% 0 in 128 W/m2
11:50 27.9 °F 17.2 °F 30.3 in ESE 4 mph 12 mph 64% 0 in 107 W/m2
11:55 27.9 °F 16.9 °F 30.4 in East 6.9 mph 11 mph 63% 0 in 72 W/m2
12:00 27.9 °F 16.9 °F 30.4 in East 4.9 mph 9 mph 63% 0 in 105 W/m2
12:05 28 °F 17.1 °F 30.3 in ENE 2 mph 10 mph 63% 0 in 188 W/m2
12:10 28.2 °F 17.2 °F 30.4 in ENE 6 mph 10 mph 63% 0 in 250 W/m2
12:15 28.4 °F 16.7 °F 30.3 in SE 12.1 mph 12 mph 61% 0 in 251 W/m2
12:20 28.4 °F 16.7 °F 30.3 in NE 6.9 mph 13 mph 61% 0 in 388 W/m2
12:25 28.8 °F 17.1 °F 30.3 in NE 6.9 mph 11 mph 61% 0 in 279 W/m2
12:30 28.6 °F 16.5 °F 30.3 in East 4 mph 26 mph 60% 0 in 306 W/m2
12:35 28.6 °F 16.9 °F 30.3 in ESE 8.1 mph 13 mph 61% 0 in 216 W/m2
12:40 28.6 °F 16.5 °F 30.3 in ESE 8.1 mph 26 mph 60% 0 in 190 W/m2
12:45 28.8 °F 17.1 °F 30.3 in ENE 4.9 mph 11 mph 61% 0 in 107 W/m2
12:50 28.9 °F 17.6 °F 30.3 in North 4 mph 18 mph 62% 0 in 193 W/m2
12:55 29.1 °F 17.4 °F 30.3 in ESE 4 mph 13 mph 61% 0 in 142 W/m2
13:00 28.9 °F 17.2 °F 30.3 in ENE 2.9 mph 10 mph 61% 0 in 123 W/m2
13:05 28.9 °F 16.9 °F 30.3 in ESE 8.9 mph 14 mph 60% 0 in 77 W/m2
13:10 28.8 °F 17.1 °F 30.3 in East 4 mph 11 mph 61% 0 in 162 W/m2
13:15 28.9 °F 17.2 °F 30.3 in ESE 6.9 mph 12 mph 61% 0 in 253 W/m2
13:20 28.9 °F 17.2 °F 30.3 in ENE 4.9 mph 13 mph 61% 0 in 193 W/m2
13:25 28.8 °F 17.4 °F 30.3 in SE 8.9 mph 11 mph 62% 0 in 100 W/m2
13:30 28.9 °F 17.2 °F 30.3 in East 6 mph 17 mph 61% 0 in 86 W/m2
13:35 28.9 °F 17.2 °F 30.3 in SE 2.9 mph 10 mph 61% 0 in 199 W/m2
13:40 29.1 °F 17.8 °F 30.3 in NNE 4.9 mph 17 mph 62% 0 in 98 W/m2
13:45 29.1 °F 17.4 °F 30.3 in ESE 6.9 mph 13 mph 61% 0 in 97 W/m2
13:50 29.1 °F 17.4 °F 30.3 in East 4 mph 15 mph 61% 0 in 127 W/m2
13:55 29.1 °F 17.8 °F 30.3 in ENE 0.9 mph 7 mph 62% 0 in 114 W/m2
14:00 29.3 °F 17.6 °F 30.3 in ENE 4.9 mph 11 mph 61% 0 in 137 W/m2
14:05 29.3 °F 17.6 °F 30.3 in NE 6 mph 15 mph 61% 0 in 125 W/m2
14:10 29.5 °F 17.2 °F 30.3 in ENE 6 mph 14 mph 60% 0 in 139 W/m2
14:15 29.7 °F 17.4 °F 30.3 in ENE 2 mph 15 mph 60% 0 in 155 W/m2
14:20 30 °F 18.1 °F 30.3 in ENE 4.9 mph 8 mph 61% 0 in 127 W/m2
14:25 29.8 °F 16.9 °F 30.3 in SE 4.9 mph 14 mph 58% 0 in 160 W/m2
14:30 29.8 °F 17.2 °F 30.3 in East 8.9 mph 14 mph 59% 0 in 125 W/m2
14:35 29.8 °F 17.2 °F 30.3 in NE 6 mph 12 mph 59% 0 in 109 W/m2
14:40 29.8 °F 17.6 °F 30.3 in East 2.9 mph 10 mph 60% 0 in 104 W/m2
14:45 29.8 °F 17.6 °F 30.3 in East 4 mph 14 mph 60% 0 in 104 W/m2
14:50 29.7 °F 17.4 °F 30.3 in East 2.9 mph 10 mph 60% 0 in 104 W/m2
14:55 29.7 °F 17.4 °F 30.3 in NE 8.1 mph 12 mph 60% 0 in 98 W/m2
15:00 29.7 °F 17.4 °F 30.3 in ENE 2.9 mph 11 mph 60% 0 in 98 W/m2
15:05 29.7 °F 17.8 °F 30.3 in ESE 2.9 mph 13 mph 61% 0 in 95 W/m2
15:10 29.8 °F 18 °F 30.3 in East 0.9 mph 10 mph 61% 0 in 105 W/m2
15:15 29.8 °F 18 °F 30.3 in ENE 10.1 mph 10 mph 61% 0 in 109 W/m2
15:20 29.8 °F 18 °F 30.3 in East 6.9 mph 7 mph 61% 0 in 91 W/m2
15:25 29.8 °F 18 °F 30.3 in ENE 4.9 mph 13 mph 61% 0 in 91 W/m2
15:30 29.8 °F 18 °F 30.3 in East 6 mph 13 mph 61% 0 in 105 W/m2
15:35 29.8 °F 18.5 °F 30.3 in East 6.9 mph 9 mph 62% 0 in 97 W/m2
15:40 29.8 °F 18.5 °F 30.3 in SE 8.1 mph 9 mph 62% 0 in 70 W/m2
15:45 29.7 °F 17.8 °F 30.3 in NE 6 mph 13 mph 61% 0 in 76 W/m2
15:50 29.7 °F 18.3 °F 30.3 in ENE 4 mph 18 mph 62% 0 in 76 W/m2
15:55 29.7 °F 18.3 °F 30.3 in East 11 mph 11 mph 62% 0 in 69 W/m2
16:00 29.7 °F 18.3 °F 30.3 in ENE 4.9 mph 9 mph 62% 0 in 69 W/m2
16:05 29.8 °F 18.5 °F 30.3 in NE 10.1 mph 11 mph 62% 0 in 60 W/m2
16:10 29.8 °F 18.5 °F 30.3 in NNE 6 mph 12 mph 62% 0 in 56 W/m2
16:15 29.7 °F 18.7 °F 30.3 in ESE 6.9 mph 12 mph 63% 0 in 51 W/m2
16:20 29.7 °F 18.7 °F 30.4 in NE 4 mph 9 mph 63% 0 in 47 W/m2
Juneau County Weather
Compliments of Weather Underground - 2 mb